Flight Track Log - Related Links

Times and Time Zones

All times are in EDT time to prevent confusion due to time zone crossing. See the CPT926 flight status page for this flight to view local times or setup timezone preferences in your user account.


Time Position Orientation Groundspeed Altitude Reporting Facility
EDT Latitude Longitude Course Direction KTS MPH feet Rate Location/Type
Wed 07:57:55 PM 21.9500 -159.3000 118° Southeast 100 115 2,200  Level Honolulu Center
Wed 07:58:55 PM 21.9333 -159.2833 137° Southeast 100 115 3,500 1,300 Climbing Honolulu Center
Wed 07:59:55 PM 21.9167 -159.2667 137° Southeast 100 115 4,800 1,289 Climbing Honolulu Center
Wed 08:00:56 PM 21.9000 -159.2500 137° Southeast 90 104 6,100 1,091 Climbing Honolulu Center
Wed 08:01:56 PM 21.8833 -159.2167 118° Southeast 110 127 7,000 450 Climbing Honolulu Center
Wed 08:02:56 PM 21.8500 -159.1833 137° Southeast 150 173 7,000  Level Honolulu Center
Wed 08:03:56 PM 21.8333 -159.1667 137° Southeast 140 161 7,000  Level Honolulu Center
Wed 08:04:57 PM 21.8000 -159.1333 137° Southeast 140 161 7,000  Level Honolulu Center
Wed 08:05:57 PM 21.7833 -159.1000 118° Southeast 140 161 7,000  Level Honolulu Center
Wed 08:06:57 PM 21.7667 -159.0667 118° Southeast 110 127 7,000  Level Honolulu Center
Wed 08:07:58 PM 21.7500 -159.0333 118° Southeast 120 138 7,000  Level Honolulu Center
Wed 08:08:58 PM 21.7333 -159.0000 118° Southeast 120 138 7,000  Level Honolulu Center
Wed 08:09:58 PM 21.7167 -158.9667 118° Southeast 120 138 7,000  Level Honolulu Center
Wed 08:10:59 PM 21.7000 -158.9333 118° Southeast 120 138 7,000  Level Honolulu Center
Wed 08:11:59 PM 21.7000 -158.9000 90° East 110 127 7,000  Level Honolulu Center
Wed 08:13:00 PM 21.7000 -158.8667 90° East 120 138 7,000  Level Honolulu Center
Wed 08:14:00 PM 21.6833 -158.8333 118° Southeast 140 161 7,000  Level Honolulu Center
Wed 08:15:00 PM 21.6667 -158.8000 118° Southeast 140 161 7,000  Level Honolulu Center
Wed 08:16:01 PM 21.6500 -158.7667 118° Southeast 130 150 7,000  Level Honolulu Center
Wed 08:17:01 PM 21.6333 -158.7333 118° Southeast 150 173 7,000  Level Honolulu Center
Wed 08:18:01 PM 21.6167 -158.7167 137° Southeast 120 138 7,000  Level Honolulu Center
Wed 08:19:02 PM 21.5833 -158.6667 126° Southeast 120 138 7,000  Level Honolulu Center
Wed 08:20:02 PM 21.5667 -158.6333 118° Southeast 150 173 7,000  Level Honolulu Center
Wed 08:21:03 PM 21.5500 -158.6000 118° Southeast 120 138 7,000  Level Honolulu Center
Wed 08:22:03 PM 21.5333 -158.5667 118° Southeast 130 150 7,000  Level Honolulu Center
Wed 08:23:03 PM 21.5167 -158.5333 118° Southeast 130 150 7,000  Level Honolulu Center
Wed 08:24:04 PM 21.5000 -158.5167 137° Southeast 120 138 7,000 -50 Level Honolulu Center
Wed 08:25:04 PM 21.4667 -158.4833 137° Southeast 140 161 6,900 -300 Descending Honolulu Center
Wed 08:26:04 PM 21.4333 -158.4500 137° Southeast 140 161 6,400 -446 Descending Honolulu Center
Wed 08:27:05 PM 21.4000 -158.4333 155° Southeast 140 161 6,000 -496 Descending Honolulu Center
Wed 08:28:05 PM 21.3667 -158.4000 137° Southeast 140 161 5,400 -450 Descending Honolulu Center
Wed 08:29:05 PM 21.3500 -158.3667 118° Southeast 140 161 5,100 -149 Descending Honolulu Center
Wed 08:30:06 PM 21.3167 -158.3500 155° Southeast 130 150 5,100 -99 Level Honolulu Center
Wed 08:31:06 PM 21.2833 -158.3167 137° Southeast 160 184 4,900 -300 Descending Honolulu Center
Wed 08:32:06 PM 21.2500 -158.3000 155° Southeast 130 150 4,500 -496 Descending Honolulu Center
Wed 08:33:07 PM 21.2167 -158.2667 137° Southeast 140 161 3,900 -595 Descending Honolulu Center
Wed 08:34:07 PM 21.2000 -158.2500 137° Southeast 140 161 3,300 -550 Descending Honolulu Center
Wed 08:35:07 PM 21.1667 -158.2167 137° Southeast 110 127 2,800 -496 Descending Honolulu Center
Wed 08:36:08 PM 21.1667 -158.1833 90° East 130 150 2,300 -397 Descending Honolulu Center
Wed 08:37:08 PM 21.2000 -158.1500 43° Northeast 130 150 2,000 -149 Descending Honolulu Center
Wed 08:38:09 PM 21.2167 -158.1167 62° Northeast 130 150 2,000 50 Level Honolulu Center
Wed 08:39:08 PM 21.2333 -158.0833 62° Northeast 130 150 2,100 50 Climbing Honolulu Center
Wed 08:40:09 PM 21.2333 -158.0500 90° East 130 150 2,100 -50 Level Honolulu Center
Wed 08:41:09 PM 21.2500 -158.0167 62° Northeast 120 138 2,000 -250 Descending Honolulu Center
Wed 08:42:09 PM 21.2667 -157.9833 62° Northeast 100 115 1,600 -545 Descending Honolulu Center
Wed 08:43:10 PM 21.2833 -157.9500 62° Northeast 90 104 900 -689 Descending Honolulu Center

Login

Don't have an account? Register now (free) for customized features, flight alerts, and more!